Time;durP1;ratioP1;P1;durP2;ratioP2;P2;SDS_P1;SDS_P2;PMS_P1;PMS_P2;Temp;Humidity;BMP_temperature;BMP_pressure;BME280_temperature;BME280_humidity;BME280_pressure;Samples;Min_cycle;Max_cycle;Signal;HPM_P1;HPM_P2
2021/09/08 00:00:03;;;;;;;19.97;16.47;;;17.00;99.90;;;;;;4404991;32;20197;-66
2021/09/08 00:02:30;;;;;;;20.17;15.10;;;16.90;99.90;;;;;;4404481;32;20218;-67
2021/09/08 00:04:57;;;;;;;20.03;16.17;;;16.90;99.90;;;;;;4405107;32;20223;-65
2021/09/08 00:07:25;;;;;;;18.77;16.03;;;16.90;99.90;;;;;;4405773;32;20271;-65
2021/09/08 00:09:51;;;;;;;17.37;15.03;;;16.90;99.90;;;;;;4405015;32;20160;-65
2021/09/08 00:12:18;;;;;;;19.87;15.47;;;16.90;99.90;;;;;;4405906;32;20221;-65
2021/09/08 00:14:45;;;;;;;20.87;14.90;;;16.80;99.90;;;;;;4404887;32;20588;-67
2021/09/08 00:17:15;;;;;;;16.80;14.50;;;16.80;99.90;;;;;;4404696;32;20167;-64
2021/09/08 00:19:42;;;;;;;18.70;15.30;;;16.80;99.90;;;;;;4396322;32;20160;-67
2021/09/08 00:22:09;;;;;;;22.60;15.73;;;16.80;99.90;;;;;;4398505;32;20208;-65
2021/09/08 00:24:37;;;;;;;17.33;15.50;;;16.70;99.90;;;;;;4398098;32;20563;-65
2021/09/08 00:27:06;;;;;;;19.90;15.63;;;16.80;99.90;;;;;;4403682;32;20164;-68
2021/09/08 00:29:33;;;;;;;17.70;15.10;;;16.70;99.90;;;;;;4405351;32;20156;-66
2021/09/08 00:31:59;;;;;;;19.43;15.27;;;16.70;99.90;;;;;;4405723;32;20487;-66
2021/09/08 00:34:28;;;;;;;16.63;14.27;;;16.70;99.90;;;;;;4408416;32;20194;-65
2021/09/08 00:36:55;;;;;;;18.77;15.23;;;16.60;99.90;;;;;;4407922;32;20182;-68
2021/09/08 00:39:22;;;;;;;17.43;14.97;;;16.60;99.90;;;;;;4409929;32;20231;-65
2021/09/08 00:41:50;;;;;;;19.20;15.40;;;16.60;99.90;;;;;;4408046;32;20210;-65
2021/09/08 00:44:17;;;;;;;17.70;15.30;;;16.60;99.90;;;;;;4406842;32;20234;-65
2021/09/08 00:46:45;;;;;;;17.80;15.67;;;16.50;99.90;;;;;;4408068;32;20170;-66
2021/09/08 00:49:13;;;;;;;16.90;14.03;;;16.50;99.90;;;;;;4406874;32;20151;-67
2021/09/08 00:51:40;;;;;;;17.63;15.40;;;16.50;99.90;;;;;;4408970;32;20237;-65
2021/09/08 00:54:12;;;;;;;19.17;15.93;;;16.50;99.90;;;;;;4407554;32;20190;-65
2021/09/08 00:56:41;;;;;;;20.63;16.13;;;16.40;99.90;;;;;;4404921;32;20202;-65
2021/09/08 00:59:10;;;;;;;18.73;15.60;;;16.40;99.90;;;;;;4407096;32;20160;-65
2021/09/08 01:01:37;;;;;;;16.50;14.70;;;16.40;99.90;;;;;;4407445;32;20604;-66
2021/09/08 01:04:04;;;;;;;18.13;14.93;;;16.40;99.90;;;;;;4407363;32;20170;-66
2021/09/08 01:06:31;;;;;;;19.40;15.47;;;16.30;99.90;;;;;;4408013;32;20175;-65
2021/09/08 01:08:59;;;;;;;19.00;15.27;;;16.30;99.90;;;;;;4409361;32;20179;-65
2021/09/08 01:11:26;;;;;;;18.43;14.67;;;16.30;99.90;;;;;;4409126;32;20541;-67
2021/09/08 01:13:53;;;;;;;21.10;16.77;;;16.20;99.90;;;;;;4406684;32;20270;-65
2021/09/08 01:16:21;;;;;;;16.00;14.27;;;16.20;99.90;;;;;;4402632;32;20194;-65
2021/09/08 01:18:47;;;;;;;20.33;15.07;;;16.10;99.90;;;;;;4408053;32;20563;-66
2021/09/08 01:21:14;;;;;;;18.47;16.03;;;16.10;99.90;;;;;;4406571;32;20171;-65
2021/09/08 01:23:42;;;;;;;19.67;15.20;;;16.10;99.90;;;;;;4408382;32;20230;-66
2021/09/08 01:26:10;;;;;;;19.37;14.97;;;16.10;99.90;;;;;;4407895;32;20233;-69
2021/09/08 01:28:37;;;;;;;21.03;15.40;;;16.10;99.90;;;;;;4407290;32;20160;-65
2021/09/08 01:31:05;;;;;;;17.37;12.87;;;16.10;99.90;;;;;;4405918;32;20151;-63
2021/09/08 01:33:34;;;;;;;18.23;14.93;;;16.10;99.90;;;;;;4407522;32;20174;-66
2021/09/08 01:36:04;;;;;;;18.63;15.33;;;16.20;99.90;;;;;;4406994;32;20178;-66
2021/09/08 01:38:31;;;;;;;17.40;15.57;;;16.10;99.90;;;;;;4407413;32;20224;-64
2021/09/08 01:40:59;;;;;;;17.97;15.23;;;16.10;99.90;;;;;;4407562;32;20178;-65
2021/09/08 01:43:27;;;;;;;19.30;15.13;;;16.10;99.90;;;;;;4408609;32;20172;-64
2021/09/08 01:45:54;;;;;;;18.77;15.33;;;16.00;99.90;;;;;;4407636;32;20147;-66
2021/09/08 01:48:21;;;;;;;20.00;15.53;;;16.00;99.90;;;;;;4406007;32;20148;-64
2021/09/08 01:50:48;;;;;;;17.77;15.30;;;16.00;99.90;;;;;;4405345;32;20171;-64
2021/09/08 01:53:15;;;;;;;17.30;15.50;;;15.90;99.90;;;;;;4407143;32;20579;-64
2021/09/08 01:55:42;;;;;;;17.10;15.30;;;16.00;99.90;;;;;;4404933;32;20205;-64
2021/09/08 01:58:10;;;;;;;18.97;14.90;;;15.90;99.90;;;;;;4406426;32;20160;-65
2021/09/08 02:00:37;;;;;;;18.00;14.80;;;15.90;99.90;;;;;;4406616;32;20198;-64
2021/09/08 02:03:04;;;;;;;19.13;16.07;;;15.90;99.90;;;;;;4406765;32;20156;-66
2021/09/08 02:05:31;;;;;;;17.47;15.43;;;15.90;99.90;;;;;;4407884;32;20179;-68
2021/09/08 02:07:58;;;;;;;21.23;15.80;;;15.80;99.90;;;;;;4408516;32;20179;-69
2021/09/08 02:10:24;;;;;;;19.50;16.17;;;15.90;99.90;;;;;;4407304;32;20703;-66
2021/09/08 02:12:51;;;;;;;17.50;15.37;;;15.80;99.90;;;;;;4406571;32;20171;-67
2021/09/08 02:15:20;;;;;;;19.57;15.53;;;15.80;99.90;;;;;;4408344;32;20219;-65
2021/09/08 02:17:46;;;;;;;21.00;16.13;;;15.80;99.90;;;;;;4408195;32;20164;-66
2021/09/08 02:20:13;;;;;;;20.90;15.30;;;15.80;99.90;;;;;;4406734;32;20152;-64
2021/09/08 02:22:40;;;;;;;20.10;14.20;;;15.80;99.90;;;;;;4406282;32;20191;-63
2021/09/08 02:25:07;;;;;;;18.80;15.33;;;15.80;99.90;;;;;;4405577;32;20168;-63
2021/09/08 02:27:34;;;;;;;18.03;14.87;;;15.80;99.90;;;;;;4408084;32;20637;-63
2021/09/08 02:30:04;;;;;;;20.30;16.40;;;15.80;99.90;;;;;;4405546;32;20223;-63
2021/09/08 02:32:32;;;;;;;19.90;16.40;;;15.70;99.90;;;;;;4402118;32;20262;-65
2021/09/08 02:34:59;;;;;;;18.60;15.73;;;15.70;99.90;;;;;;4404698;32;20163;-67
2021/09/08 02:37:26;;;;;;;19.23;16.03;;;15.70;99.90;;;;;;4407918;32;20168;-68
2021/09/08 02:39:53;;;;;;;23.90;17.47;;;15.70;99.90;;;;;;4408183;32;20576;-65
2021/09/08 02:42:20;;;;;;;22.13;16.93;;;15.70;99.90;;;;;;4407441;32;20171;-64
2021/09/08 02:44:49;;;;;;;18.67;16.60;;;15.60;99.90;;;;;;4406638;32;20187;-67
2021/09/08 02:47:17;;;;;;;19.27;16.13;;;15.60;99.90;;;;;;4406633;32;20562;-65
2021/09/08 02:49:45;;;;;;;21.67;17.30;;;15.60;99.90;;;;;;4406326;32;20175;-64
2021/09/08 02:52:12;;;;;;;19.40;16.43;;;15.60;99.90;;;;;;4405532;32;20201;-64
2021/09/08 02:54:39;;;;;;;18.97;16.90;;;15.60;99.90;;;;;;4406431;32;20554;-65
2021/09/08 02:57:06;;;;;;;19.40;16.87;;;15.60;99.90;;;;;;4404713;32;20223;-67
2021/09/08 02:59:33;;;;;;;20.47;16.90;;;15.60;99.90;;;;;;4407076;32;20604;-65
2021/09/08 03:01:59;;;;;;;20.60;15.77;;;15.60;99.90;;;;;;4407274;32;20219;-65
2021/09/08 03:04:27;;;;;;;20.20;15.33;;;15.50;99.90;;;;;;4406583;32;20167;-64
2021/09/08 03:06:56;;;;;;;18.83;16.77;;;15.60;99.90;;;;;;4406557;32;20470;-64
2021/09/08 03:09:23;;;;;;;18.53;16.47;;;15.60;99.90;;;;;;4406120;32;20186;-65
2021/09/08 03:11:50;;;;;;;20.37;16.10;;;15.50;99.90;;;;;;4405375;32;20178;-65
2021/09/08 03:14:17;;;;;;;22.10;17.67;;;15.60;99.90;;;;;;4405962;32;20151;-64
2021/09/08 03:16:46;;;;;;;19.70;16.97;;;15.50;99.90;;;;;;4406373;32;20164;-64
2021/09/08 03:19:13;;;;;;;18.23;16.23;;;15.50;99.90;;;;;;4407304;32;20188;-64
2021/09/08 03:21:40;;;;;;;20.00;17.00;;;15.50;99.90;;;;;;4406892;32;20549;-64
2021/09/08 03:24:08;;;;;;;19.80;17.50;;;15.50;99.90;;;;;;4404837;32;20174;-67
2021/09/08 03:26:35;;;;;;;20.30;17.33;;;15.50;99.90;;;;;;4401721;32;20505;-65
2021/09/08 03:29:01;;;;;;;22.10;17.47;;;15.50;99.90;;;;;;4405247;32;20187;-63
2021/09/08 03:31:28;;;;;;;21.40;17.93;;;15.50;99.90;;;;;;4404956;32;20608;-64
2021/09/08 03:33:55;;;;;;;20.03;17.23;;;15.40;99.90;;;;;;4403880;32;20527;-64
2021/09/08 03:36:22;;;;;;;21.80;18.43;;;15.40;99.90;;;;;;4400193;32;20160;-66
2021/09/08 03:38:49;;;;;;;19.37;16.33;;;15.30;99.90;;;;;;4403911;32;20207;-63
2021/09/08 03:41:18;;;;;;;22.10;18.90;;;15.30;99.90;;;;;;4404444;32;20143;-65
2021/09/08 03:43:44;;;;;;;21.17;17.77;;;15.30;99.90;;;;;;4403032;32;20172;-66
2021/09/08 03:46:11;;;;;;;22.47;17.43;;;15.30;99.90;;;;;;4406860;32;20602;-65
2021/09/08 03:48:38;;;;;;;19.57;17.13;;;15.30;99.90;;;;;;4406884;32;20160;-66
2021/09/08 03:51:05;;;;;;;20.23;17.93;;;15.30;99.90;;;;;;4404715;32;20181;-64
2021/09/08 03:53:32;;;;;;;21.00;17.83;;;15.30;99.90;;;;;;4405097;32;20171;-64
2021/09/08 03:55:58;;;;;;;23.57;17.70;;;15.20;99.90;;;;;;4401065;32;20156;-64
2021/09/08 03:58:26;;;;;;;19.53;16.73;;;15.20;99.90;;;;;;4405221;32;20211;-63
2021/09/08 04:00:53;;;;;;;21.70;18.53;;;15.10;99.90;;;;;;4406152;32;20516;-64
2021/09/08 04:03:20;;;;;;;26.00;20.00;;;15.10;99.90;;;;;;4407145;32;20175;-64
2021/09/08 04:05:47;;;;;;;21.70;18.33;;;15.10;99.90;;;;;;4406366;32;20168;-64
2021/09/08 04:08:14;;;;;;;20.90;18.60;;;15.10;99.90;;;;;;4403279;32;20210;-64
2021/09/08 04:10:41;;;;;;;22.93;18.83;;;15.10;99.90;;;;;;4404969;32;20254;-64
2021/09/08 04:13:07;;;;;;;21.93;18.83;;;15.10;99.90;;;;;;4404788;32;20177;-64
2021/09/08 04:15:36;;;;;;;22.20;19.33;;;15.10;99.90;;;;;;4404851;32;20187;-65
2021/09/08 04:18:02;;;;;;;23.03;19.47;;;15.00;99.90;;;;;;4406335;32;20167;-65
2021/09/08 04:20:29;;;;;;;23.73;19.57;;;15.00;99.90;;;;;;4404639;32;20206;-65
2021/09/08 04:22:56;;;;;;;22.43;19.70;;;15.00;99.90;;;;;;4405327;32;20190;-65
2021/09/08 04:25:23;;;;;;;23.43;18.87;;;15.00;99.90;;;;;;4406232;32;20148;-65
2021/09/08 04:27:50;;;;;;;22.17;19.77;;;15.00;99.90;;;;;;4404268;32;20179;-67
2021/09/08 04:30:17;;;;;;;25.33;18.10;;;14.90;99.90;;;;;;4404311;32;20171;-64
2021/09/08 04:32:45;;;;;;;21.97;18.43;;;14.90;99.90;;;;;;4395877;32;20567;-64
2021/09/08 04:35:12;;;;;;;23.40;18.87;;;14.90;99.90;;;;;;4396003;32;20203;-65
2021/09/08 04:37:39;;;;;;;21.67;19.03;;;14.90;99.90;;;;;;4406652;32;20258;-66
2021/09/08 04:40:07;;;;;;;22.43;18.97;;;14.90;99.90;;;;;;4404790;32;20171;-65
2021/09/08 04:42:34;;;;;;;21.40;17.40;;;14.90;99.90;;;;;;4399404;32;20216;-64
2021/09/08 04:45:01;;;;;;;22.23;19.27;;;14.90;99.90;;;;;;4405227;32;20606;-65
2021/09/08 04:47:28;;;;;;;23.73;18.87;;;14.90;99.90;;;;;;4407217;32;20152;-65
2021/09/08 04:49:56;;;;;;;22.83;19.07;;;14.90;99.90;;;;;;4406031;32;20530;-65
2021/09/08 04:52:23;;;;;;;24.03;19.27;;;14.90;99.90;;;;;;4404123;32;20186;-64
2021/09/08 04:54:49;;;;;;;24.17;18.90;;;14.90;99.90;;;;;;4404514;32;20277;-64
2021/09/08 04:57:18;;;;;;;25.17;20.23;;;14.90;99.90;;;;;;4405632;32;20215;-65
2021/09/08 04:59:45;;;;;;;23.97;20.77;;;14.90;99.90;;;;;;4403990;32;20167;-64
2021/09/08 05:02:15;;;;;;;23.70;20.63;;;14.90;99.90;;;;;;4406382;32;20195;-64
2021/09/08 05:04:42;;;;;;;24.67;20.60;;;14.90;99.90;;;;;;4406095;32;20206;-64
2021/09/08 05:07:10;;;;;;;25.03;19.97;;;14.90;99.90;;;;;;4405462;32;20178;-65
2021/09/08 05:09:37;;;;;;;24.13;21.30;;;14.90;99.90;;;;;;4404938;32;20152;-68
2021/09/08 05:12:04;;;;;;;25.83;19.47;;;14.80;99.90;;;;;;4404211;32;20163;-64
2021/09/08 05:14:31;;;;;;;24.57;20.23;;;14.80;99.90;;;;;;4406823;32;20488;-64
2021/09/08 05:16:58;;;;;;;24.03;20.30;;;14.90;99.90;;;;;;4405910;32;20176;-64
2021/09/08 05:19:25;;;;;;;26.40;20.10;;;14.80;99.90;;;;;;4405364;32;20148;-64
2021/09/08 05:21:51;;;;;;;21.47;18.97;;;14.80;99.90;;;;;;4407403;32;20501;-65
2021/09/08 05:24:20;;;;;;;22.70;20.13;;;14.80;99.90;;;;;;4406992;32;20174;-64
2021/09/08 05:26:47;;;;;;;23.37;19.10;;;14.80;99.90;;;;;;4401277;32;20206;-66
2021/09/08 05:29:15;;;;;;;27.23;19.50;;;14.80;99.90;;;;;;4400182;32;20191;-66
2021/09/08 05:31:41;;;;;;;23.83;20.03;;;14.80;99.90;;;;;;4398590;32;20221;-67
2021/09/08 05:34:08;;;;;;;25.10;20.63;;;14.90;99.90;;;;;;4398838;32;20596;-66
2021/09/08 05:36:35;;;;;;;24.50;19.70;;;14.90;99.90;;;;;;4401651;32;20326;-66
2021/09/08 05:39:03;;;;;;;23.70;21.20;;;15.00;99.90;;;;;;4404919;32;20191;-66
2021/09/08 05:41:31;;;;;;;22.37;19.37;;;15.10;99.90;;;;;;4404643;32;20606;-68
2021/09/08 05:43:58;;;;;;;21.60;19.30;;;15.10;99.90;;;;;;4406048;32;20212;-69
2021/09/08 05:46:51;;;;;;;26.17;21.27;;;15.10;99.90;;;;;;4399184;32;20235;-67
2021/09/08 05:49:18;;;;;;;29.77;20.53;;;15.10;99.90;;;;;;4401312;32;20602;-65
2021/09/08 05:51:45;;;;;;;26.70;21.07;;;15.20;99.90;;;;;;4400468;32;20170;-66
2021/09/08 05:54:12;;;;;;;27.33;21.13;;;15.20;99.90;;;;;;4401533;32;20204;-65
2021/09/08 05:56:40;;;;;;;25.80;19.23;;;15.30;99.90;;;;;;4405450;32;20182;-67
2021/09/08 05:59:08;;;;;;;27.17;19.90;;;15.30;99.90;;;;;;4402042;32;20237;-68
2021/09/08 06:01:34;;;;;;;25.73;20.23;;;15.40;99.90;;;;;;4401731;32;20570;-68
2021/09/08 06:04:01;;;;;;;26.37;20.73;;;15.40;99.90;;;;;;4401026;32;20172;-67
2021/09/08 06:06:28;;;;;;;24.30;20.50;;;15.50;99.90;;;;;;4400064;32;20183;-66
2021/09/08 06:08:55;;;;;;;27.43;20.77;;;15.50;99.90;;;;;;4397949;32;20168;-66
2021/09/08 06:11:21;;;;;;;26.73;21.50;;;15.60;99.90;;;;;;4403302;32;20666;-66
2021/09/08 06:13:50;;;;;;;28.57;19.80;;;15.60;99.90;;;;;;4399416;32;20187;-66
2021/09/08 06:16:16;;;;;;;25.67;19.90;;;15.70;99.90;;;;;;4397965;32;20520;-66
2021/09/08 06:18:43;;;;;;;26.60;21.13;;;15.80;99.90;;;;;;4396934;32;20211;-65
2021/09/08 06:21:11;;;;;;;30.30;21.37;;;15.80;99.90;;;;;;4403140;32;20193;-64
2021/09/08 06:23:38;;;;;;;24.73;20.27;;;15.90;99.90;;;;;;4400737;32;20160;-66
2021/09/08 06:26:04;;;;;;;22.90;19.40;;;15.90;99.90;;;;;;4399733;32;20175;-66
2021/09/08 06:28:31;;;;;;;24.30;18.73;;;16.00;99.90;;;;;;4403349;32;20151;-67
2021/09/08 06:30:59;;;;;;;26.30;18.63;;;16.10;99.90;;;;;;4400742;32;20610;-66
2021/09/08 06:33:26;;;;;;;26.50;19.93;;;16.20;99.90;;;;;;4392784;32;20156;-67
2021/09/08 06:35:53;;;;;;;22.63;17.27;;;16.30;99.90;;;;;;4405912;32;20195;-65
2021/09/08 06:38:23;;;;;;;21.27;18.33;;;16.40;99.90;;;;;;4408013;32;20445;-66
2021/09/08 06:40:51;;;;;;;23.90;18.37;;;16.50;99.90;;;;;;4402962;32;20213;-67
2021/09/08 06:43:18;;;;;;;25.57;19.27;;;16.60;99.90;;;;;;4405607;32;20543;-66
2021/09/08 06:45:45;;;;;;;24.97;18.07;;;16.70;99.90;;;;;;4396037;32;20161;-66
2021/09/08 06:48:13;;;;;;;26.13;18.63;;;16.80;99.90;;;;;;4395318;32;20167;-65
2021/09/08 06:50:40;;;;;;;22.57;18.47;;;16.90;99.90;;;;;;4404746;32;20235;-66
2021/09/08 06:53:07;;;;;;;22.53;18.00;;;17.00;99.90;;;;;;4405663;32;20685;-65
2021/09/08 06:55:34;;;;;;;23.40;18.30;;;17.10;99.90;;;;;;4401610;32;20156;-66
2021/09/08 06:58:01;;;;;;;21.80;18.40;;;17.10;99.90;;;;;;4406096;32;20166;-65
2021/09/08 07:00:28;;;;;;;22.93;18.27;;;17.20;99.90;;;;;;4403047;32;20261;-64
2021/09/08 07:02:54;;;;;;;24.43;17.37;;;17.30;99.90;;;;;;4406387;32;20178;-65
2021/09/08 07:05:24;;;;;;;23.17;17.43;;;17.40;99.90;;;;;;4404406;32;20171;-67
2021/09/08 07:07:51;;;;;;;21.93;16.83;;;17.50;99.90;;;;;;4403675;32;20164;-66
2021/09/08 07:10:20;;;;;;;19.90;17.23;;;17.60;99.90;;;;;;4405190;32;20155;-66
2021/09/08 07:12:47;;;;;;;22.07;17.97;;;17.60;99.90;;;;;;4405429;32;20172;-66
2021/09/08 07:15:14;;;;;;;21.90;17.97;;;17.70;99.90;;;;;;4405381;32;20223;-66
2021/09/08 07:17:40;;;;;;;24.07;18.40;;;17.80;99.90;;;;;;4393669;32;20156;-66
2021/09/08 07:20:10;;;;;;;21.37;17.40;;;17.90;99.90;;;;;;4407548;32;20468;-66
2021/09/08 07:22:39;;;;;;;21.53;16.20;;;18.00;99.90;;;;;;4406106;32;20172;-66
2021/09/08 07:25:07;;;;;;;25.73;17.83;;;18.10;99.90;;;;;;4405715;32;20170;-68
2021/09/08 07:27:34;;;;;;;21.57;17.57;;;18.20;99.90;;;;;;4405880;32;20210;-70
2021/09/08 07:32:53;;;;;;;23.97;17.17;;;18.40;99.90;;;;;;4403772;32;20283;-70
2021/09/08 07:35:20;;;;;;;22.47;16.80;;;18.50;99.90;;;;;;4403054;32;20152;-66
2021/09/08 07:37:48;;;;;;;25.57;17.37;;;18.60;99.90;;;;;;4402957;32;20155;-65
2021/09/08 07:40:15;;;;;;;19.97;16.57;;;18.60;99.90;;;;;;4403251;32;20152;-66
2021/09/08 07:42:42;;;;;;;22.53;16.23;;;18.80;99.90;;;;;;4407801;32;20147;-65
2021/09/08 07:45:10;;;;;;;24.00;17.23;;;19.10;99.90;;;;;;4406306;32;20577;-68
2021/09/08 07:47:36;;;;;;;19.77;16.53;;;19.40;99.90;;;;;;4394659;32;20151;-70
2021/09/08 07:50:06;;;;;;;22.63;17.77;;;19.80;99.90;;;;;;4390773;32;20159;-67
2021/09/08 07:52:32;;;;;;;18.70;15.00;;;20.10;99.90;;;;;;4392139;32;20261;-67
2021/09/08 07:55:02;;;;;;;20.53;17.53;;;20.50;99.90;;;;;;4390827;32;20156;-66
2021/09/08 07:57:28;;;;;;;19.30;15.10;;;20.90;99.90;;;;;;4402257;32;20200;-69
2021/09/08 07:59:58;;;;;;;21.73;15.43;;;21.30;99.90;;;;;;4404290;32;20159;-67
2021/09/08 08:02:25;;;;;;;17.53;15.07;;;21.60;99.90;;;;;;4407224;32;20148;-68
2021/09/08 08:04:52;;;;;;;19.83;14.47;;;22.10;99.90;;;;;;4403881;32;20175;-68
2021/09/08 08:07:18;;;;;;;20.63;14.83;;;22.70;99.90;;;;;;4405673;32;20155;-66
2021/09/08 08:09:45;;;;;;;15.23;12.52;;;24.20;99.90;;;;;;4394778;32;20175;-67
2021/09/08 08:12:13;;;;;;;19.30;13.80;;;25.30;97.50;;;;;;4390787;32;20144;-70
2021/09/08 08:14:40;;;;;;;17.70;14.37;;;24.80;97.80;;;;;;4392442;32;20160;-69
2021/09/08 08:17:07;;;;;;;15.57;12.90;;;24.30;98.30;;;;;;4391676;32;20186;-67
2021/09/08 08:19:34;;;;;;;13.80;12.15;;;24.10;99.30;;;;;;4398269;32;20187;-66
2021/09/08 08:22:01;;;;;;;19.90;13.48;;;23.90;99.70;;;;;;4406816;32;20148;-66
2021/09/08 08:24:28;;;;;;;18.40;14.55;;;23.90;99.90;;;;;;4403707;32;20155;-66
2021/09/08 08:26:57;;;;;;;16.02;13.40;;;23.90;99.80;;;;;;4405345;32;20190;-68
2021/09/08 08:29:25;;;;;;;19.85;14.27;;;23.90;99.80;;;;;;4398796;32;20500;-65
2021/09/08 08:31:52;;;;;;;18.33;14.20;;;24.00;99.80;;;;;;4391864;32;20167;-68
2021/09/08 08:34:18;;;;;;;17.55;13.40;;;24.20;99.50;;;;;;4390815;32;20171;-68
2021/09/08 08:36:45;;;;;;;17.50;14.35;;;24.40;99.20;;;;;;4390262;32;20163;-65
2021/09/08 08:39:15;;;;;;;17.80;14.77;;;24.40;98.60;;;;;;4394701;32;20155;-65
2021/09/08 08:41:44;;;;;;;15.60;13.55;;;24.60;99.20;;;;;;4406543;32;20190;-64
2021/09/08 08:44:13;;;;;;;20.73;14.85;;;24.80;99.20;;;;;;4402054;32;20167;-67
2021/09/08 08:46:42;;;;;;;20.15;17.17;;;25.00;99.00;;;;;;4389819;32;20178;-65
2021/09/08 08:49:14;;;;;;;19.05;14.43;;;25.10;98.10;;;;;;4394159;32;20167;-66
2021/09/08 08:51:41;;;;;;;16.33;13.75;;;25.10;98.00;;;;;;4405250;32;20160;-65
2021/09/08 08:54:09;;;;;;;20.52;13.77;;;25.20;97.50;;;;;;4392370;32;20207;-65
2021/09/08 08:56:36;;;;;;;17.02;14.27;;;25.00;97.70;;;;;;4407192;32;20190;-64
2021/09/08 08:59:03;;;;;;;15.60;12.60;;;25.00;98.10;;;;;;4406920;32;20170;-67
2021/09/08 09:01:33;;;;;;;13.93;12.37;;;24.90;97.90;;;;;;4407263;32;20170;-66
2021/09/08 09:04:04;;;;;;;16.10;12.77;;;24.90;98.40;;;;;;4407319;32;20156;-67
2021/09/08 09:06:32;;;;;;;17.55;12.80;;;24.90;98.80;;;;;;4406031;32;20148;-67
2021/09/08 09:09:04;;;;;;;14.95;12.73;;;24.80;98.00;;;;;;4407928;32;20159;-68
2021/09/08 09:11:32;;;;;;;15.85;12.85;;;24.60;97.60;;;;;;4393427;32;20194;-66
2021/09/08 09:13:59;;;;;;;18.50;12.37;;;24.40;98.30;;;;;;4392895;32;20140;-66
2021/09/08 09:16:27;;;;;;;17.60;13.02;;;24.30;98.20;;;;;;4406143;32;20175;-69
2021/09/08 09:18:55;;;;;;;14.57;11.95;;;24.40;98.60;;;;;;4409385;32;20179;-69
2021/09/08 09:21:24;;;;;;;18.15;12.88;;;24.40;98.40;;;;;;4408023;32;20516;-65
2021/09/08 09:23:53;;;;;;;15.98;13.07;;;24.30;98.30;;;;;;4408847;32;20140;-66
2021/09/08 09:26:24;;;;;;;17.25;11.45;;;24.20;98.60;;;;;;4407391;32;20147;-67
2021/09/08 09:28:51;;;;;;;13.73;12.10;;;24.30;98.50;;;;;;4408181;32;20163;-66
2021/09/08 09:31:20;;;;;;;13.80;12.23;;;24.30;98.00;;;;;;4395774;32;20220;-66
2021/09/08 09:33:54;;;;;;;13.57;11.40;;;24.20;98.50;;;;;;4394462;32;20152;-67
2021/09/08 09:36:24;;;;;;;14.32;11.93;;;24.40;98.70;;;;;;4405220;32;20592;-66
2021/09/08 09:38:53;;;;;;;14.90;12.13;;;24.40;98.30;;;;;;4404999;32;20599;-69
2021/09/08 09:41:29;;;;;;;15.05;11.40;;;24.50;98.70;;;;;;4407316;32;20148;-67
2021/09/08 09:43:56;;;;;;;12.00;10.30;;;24.60;98.00;;;;;;4407798;32;20158;-65
2021/09/08 09:46:23;;;;;;;17.20;12.77;;;24.60;98.20;;;;;;4398408;32;20147;-66
2021/09/08 09:48:50;;;;;;;13.55;11.18;;;24.60;97.70;;;;;;4393275;32;20164;-64
2021/09/08 09:51:17;;;;;;;14.50;11.00;;;24.70;97.80;;;;;;4402380;32;20152;-67
2021/09/08 09:53:45;;;;;;;13.15;11.73;;;24.80;97.10;;;;;;4406617;32;20156;-67
2021/09/08 09:56:13;;;;;;;12.55;10.18;;;24.90;97.30;;;;;;4407495;32;20579;-66
2021/09/08 09:58:40;;;;;;;11.98;9.93;;;25.00;97.50;;;;;;4406998;32;20147;-63
2021/09/08 10:01:07;;;;;;;14.38;10.85;;;25.00;97.10;;;;;;4407237;32;20286;-66
2021/09/08 10:03:34;;;;;;;13.30;10.40;;;25.10;97.00;;;;;;4407406;32;20160;-66
2021/09/08 10:06:01;;;;;;;12.18;9.45;;;25.20;97.50;;;;;;4401506;32;20148;-64
2021/09/08 10:08:32;;;;;;;13.23;9.50;;;25.30;97.00;;;;;;4408324;32;20583;-65
2021/09/08 10:11:05;;;;;;;12.13;10.35;;;25.30;96.60;;;;;;4406459;32;20239;-66
2021/09/08 10:13:41;;;;;;;12.70;9.73;;;25.30;96.10;;;;;;4406665;32;20178;-67
2021/09/08 10:16:10;;;;;;;10.93;9.48;;;25.30;96.60;;;;;;4400849;32;20177;-64
2021/09/08 10:18:37;;;;;;;11.82;9.65;;;25.40;96.30;;;;;;4405888;32;20566;-65
2021/09/08 10:21:06;;;;;;;12.57;9.85;;;25.40;96.30;;;;;;4403837;32;20140;-66
2021/09/08 10:23:35;;;;;;;14.30;10.43;;;25.50;95.70;;;;;;4408330;32;20162;-66
2021/09/08 10:26:11;;;;;;;13.73;8.88;;;25.60;96.10;;;;;;4402847;32;20644;-66
2021/09/08 10:28:39;;;;;;;11.43;9.07;;;25.70;95.40;;;;;;4407034;32;20271;-66
2021/09/08 10:31:07;;;;;;;10.52;9.43;;;25.80;95.10;;;;;;4405452;32;20137;-64
2021/09/08 10:33:36;;;;;;;11.10;9.18;;;25.80;95.30;;;;;;4406232;32;20162;-65
2021/09/08 10:36:03;;;;;;;13.52;9.18;;;25.90;94.50;;;;;;4407101;32;20174;-65
2021/09/08 10:38:32;;;;;;;10.68;9.07;;;25.90;95.20;;;;;;4407843;32;20166;-64
2021/09/08 10:41:05;;;;;;;11.27;9.02;;;25.90;95.30;;;;;;4397882;32;20201;-66
2021/09/08 10:43:33;;;;;;;11.65;9.43;;;25.90;95.20;;;;;;4404116;32;20163;-65
2021/09/08 10:46:01;;;;;;;13.95;10.00;;;26.00;95.40;;;;;;4402716;32;20152;-65
2021/09/08 10:48:42;;;;;;;11.82;9.07;;;26.00;94.80;;;;;;4405886;32;20163;-66
2021/09/08 10:51:10;;;;;;;10.50;9.40;;;26.00;94.60;;;;;;4404321;32;20588;-69
2021/09/08 10:53:39;;;;;;;13.45;9.75;;;26.00;94.50;;;;;;4406482;32;20179;-65
2021/09/08 10:56:09;;;;;;;10.35;9.18;;;25.90;94.30;;;;;;4401909;32;20659;-65
2021/09/08 10:58:58;;;;;;;10.85;9.30;;;26.00;94.50;;;;;;4406110;32;20198;-65
2021/09/08 11:01:26;;;;;;;11.23;9.25;;;26.00;94.00;;;;;;4360749;32;20227;-65
2021/09/08 11:03:53;;;;;;;10.93;9.82;;;26.10;94.60;;;;;;4370880;32;20244;-65
2021/09/08 11:06:36;;;;;;;11.25;9.10;;;26.10;94.10;;;;;;4359497;32;20555;-65
2021/09/08 11:09:06;;;;;;;10.38;9.38;;;26.10;94.20;;;;;;4359042;32;20172;-66
2021/09/08 11:11:34;;;;;;;10.25;9.25;;;26.20;93.60;;;;;;4358735;32;20524;-67
2021/09/08 11:14:01;;;;;;;10.90;9.70;;;26.20;94.00;;;;;;4359364;32;20227;-65
2021/09/08 11:16:29;;;;;;;12.20;9.95;;;26.20;93.60;;;;;;4358892;32;20581;-64
2021/09/08 11:18:58;;;;;;;11.95;9.10;;;26.20;93.90;;;;;;4359222;32;20698;-65
2021/09/08 11:21:27;;;;;;;10.48;9.43;;;26.30;93.40;;;;;;4358857;32;20193;-65
2021/09/08 11:23:58;;;;;;;12.82;10.50;;;26.30;93.40;;;;;;4357867;32;20244;-65
2021/09/08 11:26:27;;;;;;;11.95;9.93;;;26.30;93.20;;;;;;4358107;33;20159;-65
2021/09/08 11:29:01;;;;;;;10.43;9.48;;;26.40;93.90;;;;;;4358628;32;20179;-67
2021/09/08 11:31:34;;;;;;;13.98;10.30;;;26.50;93.50;;;;;;4358139;32;20559;-67
2021/09/08 11:34:01;;;;;;;9.85;8.95;;;26.50;93.30;;;;;;4355774;32;20244;-65
2021/09/08 11:36:29;;;;;;;11.85;10.68;;;26.50;93.70;;;;;;4357968;32;20156;-65
2021/09/08 11:38:58;;;;;;;10.48;9.50;;;26.50;92.80;;;;;;4390993;32;20224;-65
2021/09/08 11:41:26;;;;;;;11.63;10.32;;;26.50;93.10;;;;;;4398839;32;20156;-64
2021/09/08 11:43:55;;;;;;;11.43;10.27;;;26.50;93.20;;;;;;4394122;32;20190;-65
2021/09/08 11:46:24;;;;;;;11.23;10.13;;;26.60;93.20;;;;;;4405125;32;20488;-65
2021/09/08 11:48:53;;;;;;;12.55;11.48;;;26.70;93.30;;;;;;4403962;32;20170;-63
2021/09/08 11:51:22;;;;;;;12.07;11.05;;;26.80;92.90;;;;;;4352176;32;1671275;-65
2021/09/08 11:53:50;;;;;;;12.43;11.23;;;26.80;92.00;;;;;;4407144;32;20253;-64
2021/09/08 11:56:19;;;;;;;12.05;10.95;;;26.80;91.60;;;;;;4350492;32;20177;-63
2021/09/08 11:58:50;;;;;;;11.88;10.88;;;26.90;91.30;;;;;;4361640;32;20520;-65
2021/09/08 12:01:18;;;;;;;11.25;10.35;;;27.00;91.30;;;;;;4405666;32;20182;-66
2021/09/08 12:03:47;;;;;;;11.30;10.40;;;27.10;91.10;;;;;;4355922;32;20172;-65
2021/09/08 12:06:17;;;;;;;10.90;10.00;;;27.00;90.60;;;;;;4329147;33;20167;-67
2021/09/08 12:08:49;;;;;;;11.12;10.05;;;27.10;90.80;;;;;;4334408;32;20166;-67
2021/09/08 12:11:33;;;;;;;11.23;10.15;;;27.20;90.00;;;;;;4362858;32;20224;-65
2021/09/08 12:14:25;;;;;;;10.48;9.63;;;27.10;89.20;;;;;;4351761;32;20600;-65
2021/09/08 12:16:54;;;;;;;11.45;10.55;;;27.10;90.20;;;;;;4380765;32;20623;-65
2021/09/08 12:19:29;;;;;;;11.38;10.35;;;27.10;89.20;;;;;;4359032;32;20163;-65
2021/09/08 12:22:08;;;;;;;11.43;10.43;;;27.20;89.60;;;;;;4401188;32;20198;-67
2021/09/08 12:24:39;;;;;;;11.00;9.98;;;27.20;90.00;;;;;;4343339;32;20173;-66
2021/09/08 12:27:27;;;;;;;11.55;10.63;;;27.20;90.00;;;;;;4401817;32;20179;-65
2021/09/08 12:29:56;;;;;;;11.18;10.18;;;27.30;89.30;;;;;;4374654;32;20186;-66
2021/09/08 12:32:23;;;;;;;10.57;9.57;;;27.30;90.00;;;;;;4405377;32;20148;-66
2021/09/08 12:34:54;;;;;;;11.50;9.45;;;27.40;89.90;;;;;;4405480;32;20185;-65